createdAt,value
2018-07-06T00:01:31.386Z,96718.20
2018-07-06T00:04:11.401Z,96720.30
2018-07-06T00:06:51.267Z,96727.00
2018-07-06T00:09:30.961Z,96726.56
2018-07-06T00:12:10.761Z,96721.88
2018-07-06T00:14:50.490Z,96710.34
2018-07-06T00:17:30.154Z,96714.88
2018-07-06T00:20:09.806Z,96711.02
2018-07-06T00:22:49.632Z,96710.15
2018-07-06T00:25:29.457Z,96707.95
2018-07-06T00:28:09.464Z,96712.86
2018-07-06T00:30:49.454Z,96710.88
2018-07-06T00:33:29.245Z,96717.30
2018-07-06T00:36:08.955Z,96715.73
2018-07-06T00:38:48.880Z,96706.31
2018-07-06T00:41:28.886Z,96698.25
2018-07-06T00:44:08.380Z,96699.52
2018-07-06T00:46:48.169Z,96704.98
2018-07-06T00:49:27.861Z,96710.45
2018-07-06T00:52:07.809Z,96714.66
2018-07-06T00:54:47.561Z,96713.38
2018-07-06T00:57:27.322Z,96717.24
2018-07-06T01:00:07.098Z,96721.88
2018-07-06T01:02:46.849Z,96728.62
2018-07-06T01:05:26.568Z,96725.16
2018-07-06T01:08:06.191Z,96722.22
2018-07-06T01:10:45.912Z,96732.33
2018-07-06T01:13:25.809Z,96730.61
2018-07-06T01:16:05.318Z,96735.69
2018-07-06T01:18:45.007Z,96731.94
2018-07-06T01:21:24.781Z,96734.91
2018-07-06T01:24:04.738Z,96734.09
2018-07-06T01:26:44.511Z,96733.94
2018-07-06T01:29:24.178Z,96726.60
2018-07-06T01:32:03.921Z,96730.80
2018-07-06T01:34:43.955Z,96723.19
2018-07-06T01:37:23.736Z,96715.17
2018-07-06T01:40:03.528Z,96714.30
2018-07-06T01:42:43.298Z,96717.23
2018-07-06T01:45:23.102Z,96720.20
2018-07-06T01:48:02.859Z,96719.67
2018-07-06T01:50:42.783Z,96717.13
2018-07-06T01:53:22.650Z,96720.94
2018-07-06T01:56:02.523Z,96718.78
2018-07-06T01:58:42.205Z,96720.50
2018-07-06T02:01:22.185Z,96720.94
2018-07-06T02:04:01.991Z,96719.28
2018-07-06T02:06:41.748Z,96719.28
2018-07-06T02:09:21.525Z,96716.45
2018-07-06T02:12:01.493Z,96722.41
2018-07-06T02:14:41.190Z,96729.93
2018-07-06T02:17:21.022Z,96733.39
2018-07-06T02:20:00.774Z,96732.47
2018-07-06T02:22:40.433Z,96732.84
2018-07-06T02:25:20.144Z,96736.61
2018-07-06T02:27:59.993Z,96731.52
2018-07-06T02:30:39.832Z,96725.63
2018-07-06T02:33:19.727Z,96724.36
2018-07-06T02:35:59.620Z,96714.64
2018-07-06T02:38:39.444Z,96720.16
2018-07-06T02:41:19.215Z,96728.61
2018-07-06T02:43:58.856Z,96729.04
2018-07-06T02:46:38.703Z,96741.73
2018-07-06T02:49:18.698Z,96746.44
2018-07-06T02:51:58.466Z,96741.36
2018-07-06T02:54:38.314Z,96732.47
2018-07-06T02:57:18.125Z,96733.24
2018-07-06T02:59:57.879Z,96727.29
2018-07-06T03:02:37.691Z,96732.02
2018-07-06T03:05:17.394Z,96720.89
2018-07-06T03:07:57.172Z,96715.91
2018-07-06T03:10:36.897Z,96717.61
2018-07-06T03:13:16.739Z,96724.45
2018-07-06T03:15:56.446Z,96723.73
2018-07-06T03:18:36.429Z,96726.27
2018-07-06T03:21:16.194Z,96730.46
2018-07-06T03:23:55.928Z,96719.88
2018-07-06T03:26:35.701Z,96709.03
2018-07-06T03:29:15.253Z,96694.69
2018-07-06T03:31:55.021Z,96686.97
2018-07-06T03:34:34.916Z,96675.39
2018-07-06T03:37:14.553Z,96673.43
2018-07-06T03:39:54.334Z,96666.88
2018-07-06T03:42:34.339Z,96659.77
2018-07-06T03:45:14.170Z,96652.97
2018-07-06T03:47:53.951Z,96645.75
2018-07-06T03:50:33.811Z,96655.06
2018-07-06T03:53:13.492Z,96660.14
2018-07-06T03:55:53.336Z,96660.88
2018-07-06T03:58:33.139Z,96659.17
2018-07-06T04:01:12.931Z,96658.88
2018-07-06T04:03:52.709Z,96652.05
2018-07-06T04:06:32.623Z,96659.66
2018-07-06T04:09:12.248Z,96655.86
2018-07-06T04:11:52.051Z,96656.88
2018-07-06T04:14:31.800Z,96656.88
2018-07-06T04:17:11.685Z,96659.56
2018-07-06T04:19:51.748Z,96652.17
2018-07-06T04:22:31.801Z,96657.55
2018-07-06T04:25:11.854Z,96658.37
2018-07-06T04:27:51.870Z,96657.05
2018-07-06T04:30:31.526Z,96658.37
2018-07-06T04:33:11.221Z,96655.94
2018-07-06T04:35:50.774Z,96653.39
2018-07-06T04:38:30.548Z,96657.30
2018-07-06T04:41:10.284Z,96658.14
2018-07-06T04:43:50.762Z,96666.34
2018-07-06T04:46:30.479Z,96658.57
2018-07-06T04:49:10.244Z,96666.42
2018-07-06T04:51:50.129Z,96660.08
2018-07-06T04:54:29.983Z,96669.36
2018-07-06T04:57:09.830Z,96667.64
2018-07-06T04:59:49.750Z,96663.84
2018-07-06T05:02:29.625Z,96662.72
2018-07-06T05:05:09.548Z,96663.17
2018-07-06T05:07:49.436Z,96662.16
2018-07-06T05:10:29.123Z,96669.77
2018-07-06T05:13:08.720Z,96678.95
2018-07-06T05:15:48.398Z,96681.73
2018-07-06T05:18:28.174Z,96694.19
2018-07-06T05:21:07.922Z,96706.19
2018-07-06T05:23:47.738Z,96719.08
2018-07-06T05:26:27.535Z,96719.43
2018-07-06T05:29:07.311Z,96722.89
2018-07-06T05:31:47.159Z,96720.30
2018-07-06T05:34:26.920Z,96731.01
2018-07-06T05:37:06.566Z,96727.20
2018-07-06T05:39:46.320Z,96727.16
2018-07-06T05:42:26.004Z,96739.89
2018-07-06T05:45:05.840Z,96665.23
2018-07-06T05:47:45.624Z,96753.05
2018-07-06T05:50:25.227Z,96749.38
2018-07-06T05:53:04.789Z,96744.64
2018-07-06T05:55:44.477Z,96722.91
2018-07-06T05:58:24.322Z,96714.78
2018-07-06T06:01:03.890Z,96704.92
2018-07-06T06:03:43.556Z,96712.83
2018-07-06T06:06:23.163Z,96726.95
2018-07-06T06:08:50.462Z,96729.77
2018-07-06T06:11:19.151Z,96744.04
2018-07-06T06:13:47.685Z,96753.50
2018-07-06T06:16:16.177Z,96793.34
2018-07-06T06:18:45.297Z,96831.43
2018-07-06T06:21:13.861Z,96842.97
2018-07-06T06:23:42.410Z,96836.21
2018-07-06T06:26:10.951Z,96825.95
2018-07-06T06:28:39.600Z,96828.70
2018-07-06T06:31:08.172Z,96837.81
2018-07-06T06:33:36.813Z,96847.06
2018-07-06T06:36:05.410Z,96855.14
2018-07-06T06:38:33.973Z,96852.50
2018-07-06T06:41:02.485Z,96844.66
2018-07-06T06:43:31.073Z,96847.38
2018-07-06T06:45:59.658Z,96851.29
2018-07-06T06:48:28.193Z,96860.55
2018-07-06T06:50:56.757Z,96872.42
2018-07-06T06:53:25.316Z,96884.55
2018-07-06T06:55:53.866Z,96936.75
2018-07-06T06:58:22.441Z,96962.30
2018-07-06T07:00:51.287Z,96997.84
2018-07-06T07:03:19.812Z,97055.38
2018-07-06T07:05:48.550Z,97047.69
2018-07-06T07:08:17.053Z,97041.23
2018-07-06T07:10:45.916Z,97017.34
2018-07-06T07:13:14.806Z,97047.02
2018-07-06T07:15:43.623Z,97083.80
2018-07-06T07:18:12.133Z,97132.58
2018-07-06T07:20:40.664Z,97097.81
2018-07-06T07:23:09.371Z,97107.80
2018-07-06T07:25:38.098Z,97116.84
2018-07-06T07:28:06.652Z,97101.08
2018-07-06T07:30:35.185Z,97104.91
2018-07-06T07:33:03.714Z,97117.12
2018-07-06T07:35:34.044Z,97100.28
2018-07-06T07:38:02.605Z,97107.20
2018-07-06T07:40:31.135Z,97130.92
2018-07-06T07:43:03.372Z,97120.34
2018-07-06T07:45:31.897Z,97136.84
2018-07-06T07:48:00.578Z,97144.44
2018-07-06T07:50:29.190Z,97157.00
2018-07-06T07:53:08.946Z,97193.81
2018-07-06T07:55:37.460Z,97218.02
2018-07-06T07:58:06.083Z,97256.41
2018-07-06T08:00:34.754Z,97237.08
2018-07-06T08:03:03.223Z,97249.53
2018-07-06T08:05:31.771Z,97229.14
2018-07-06T08:08:00.538Z,97254.38
2018-07-06T08:10:30.138Z,97284.81
2018-07-06T08:12:59.182Z,97306.07
2018-07-06T08:15:27.972Z,97311.92
2018-07-06T08:17:56.700Z,97332.89
2018-07-06T08:20:25.401Z,97324.54
2018-07-06T08:22:54.812Z,97319.34
2018-07-06T08:25:23.445Z,97359.93
2018-07-06T08:27:52.213Z,97371.79
2018-07-06T08:30:21.014Z,97379.77
2018-07-06T08:32:56.425Z,97405.05
2018-07-06T08:35:36.220Z,97407.73
2018-07-06T08:38:06.062Z,97407.13
2018-07-06T08:40:34.834Z,97404.80
2018-07-06T08:43:04.884Z,97411.71
2018-07-06T08:45:34.334Z,97416.66
2018-07-06T08:48:02.987Z,97418.72
2018-07-06T08:50:31.562Z,97434.59
2018-07-06T08:53:00.141Z,97439.84
2018-07-06T08:55:29.154Z,97443.08
2018-07-06T08:57:58.641Z,97446.31
2018-07-06T09:00:27.485Z,97444.72
2018-07-06T09:02:56.043Z,97449.52
2018-07-06T09:05:24.617Z,97464.30
2018-07-06T09:07:53.283Z,97457.91
2018-07-06T09:10:21.984Z,97460.36
2018-07-06T09:12:50.699Z,97471.03
2018-07-06T09:15:19.656Z,97462.30
2018-07-06T09:17:48.214Z,97464.90
2018-07-06T09:20:16.954Z,97469.28
2018-07-06T09:22:45.409Z,97470.86
2018-07-06T09:25:14.061Z,97470.19
2018-07-06T09:27:42.663Z,97478.97
2018-07-06T09:30:11.257Z,97478.31
2018-07-06T09:32:39.889Z,97476.27
2018-07-06T09:35:08.784Z,97490.05
2018-07-06T09:37:37.478Z,97485.47
2018-07-06T09:40:06.301Z,97485.64
2018-07-06T09:42:35.213Z,97492.23
2018-07-06T09:45:04.725Z,97491.19
2018-07-06T09:47:34.618Z,97495.80
2018-07-06T09:50:03.520Z,97494.27
2018-07-06T09:52:32.167Z,97481.94
2018-07-06T09:55:00.997Z,97483.36
2018-07-06T09:57:29.846Z,97488.40
2018-07-06T09:59:58.666Z,97486.09
2018-07-06T10:02:27.491Z,97484.19
2018-07-06T10:04:56.284Z,97487.75
2018-07-06T10:07:25.357Z,97488.77
2018-07-06T10:09:54.210Z,97488.98
2018-07-06T10:12:23.090Z,97484.16
2018-07-06T10:14:51.895Z,97501.41
2018-07-06T10:17:20.790Z,97502.59
2018-07-06T10:19:49.981Z,97502.48
2018-07-06T10:22:18.739Z,97508.91
2018-07-06T10:24:47.670Z,97512.16
2018-07-06T10:27:16.768Z,97508.75
2018-07-06T10:29:58.063Z,97505.70
2018-07-06T10:32:29.606Z,97500.27
2018-07-06T10:34:59.094Z,97489.22
2018-07-06T10:37:28.616Z,97488.66
2018-07-06T10:39:58.209Z,97479.10
2018-07-06T10:42:27.073Z,97470.51
2018-07-06T10:44:56.119Z,97477.70
2018-07-06T10:47:24.794Z,97473.02
2018-07-06T10:49:53.550Z,97473.27
2018-07-06T10:52:22.345Z,97478.55
2018-07-06T10:54:51.116Z,97486.70
2018-07-06T10:57:19.822Z,97482.89
2018-07-06T10:59:48.754Z,97477.44
2018-07-06T11:02:17.368Z,97481.98
2018-07-06T11:04:46.258Z,97472.00
2018-07-06T11:07:15.015Z,97463.37
2018-07-06T11:09:43.778Z,97458.34
2018-07-06T11:12:12.436Z,97446.70
2018-07-06T11:14:41.196Z,97447.98
2018-07-06T11:17:09.962Z,96632.93
2018-07-06T11:19:38.633Z,97438.66
2018-07-06T11:22:07.399Z,97392.88
2018-07-06T11:24:37.101Z,97374.59
2018-07-06T11:27:05.732Z,97361.20
2018-07-06T11:29:35.058Z,97339.76
2018-07-06T11:32:04.364Z,97349.83
2018-07-06T11:34:33.053Z,97412.44
2018-07-06T11:37:01.734Z,97434.99
2018-07-06T11:39:30.373Z,97415.16
2018-07-06T11:41:59.096Z,97421.33
2018-07-06T11:44:27.726Z,97448.77
2018-07-06T11:46:56.293Z,97462.66
2018-07-06T11:49:24.848Z,97472.30
2018-07-06T11:51:53.761Z,97491.14
2018-07-06T11:54:22.341Z,97499.78
2018-07-06T11:56:51.183Z,97505.46
2018-07-06T11:59:19.747Z,97504.42
2018-07-06T12:01:48.511Z,97514.84
2018-07-06T12:04:17.154Z,97517.44
2018-07-06T12:06:45.574Z,97522.91
2018-07-06T12:09:14.073Z,97529.53
2018-07-06T12:11:42.902Z,97531.48
2018-07-06T12:14:11.474Z,97536.64
2018-07-06T12:16:40.097Z,97531.97
2018-07-06T12:19:08.647Z,97532.82
2018-07-06T12:21:37.169Z,97538.80
2018-07-06T12:24:05.693Z,97540.89
2018-07-06T12:26:34.237Z,97546.14
2018-07-06T12:29:02.815Z,97554.97
2018-07-06T12:31:31.416Z,97542.67
2018-07-06T12:34:00.211Z,97541.27
2018-07-06T12:36:28.743Z,97545.08
2018-07-06T12:38:57.293Z,97551.50
2018-07-06T12:41:25.801Z,97545.49
2018-07-06T12:43:54.375Z,97552.30
2018-07-06T12:46:22.970Z,97541.36
2018-07-06T12:48:51.587Z,97550.41
2018-07-06T12:51:20.105Z,97552.16
2018-07-06T12:53:48.777Z,97546.09
2018-07-06T12:56:17.407Z,97547.62
2018-07-06T12:58:46.225Z,97551.94
2018-07-06T13:01:14.868Z,97546.89
2018-07-06T13:03:43.679Z,97536.44
2018-07-06T13:06:12.387Z,97541.51
2018-07-06T13:08:41.056Z,97542.77
2018-07-06T13:11:09.671Z,97543.45
2018-07-06T13:13:38.589Z,97552.63
2018-07-06T13:16:07.225Z,97554.75
2018-07-06T13:18:36.016Z,97547.96
2018-07-06T13:21:04.695Z,97550.55
2018-07-06T13:23:33.303Z,97551.77
2018-07-06T13:26:01.847Z,97553.42
2018-07-06T13:28:30.509Z,97554.94
2018-07-06T13:30:59.109Z,97553.72
2018-07-06T13:33:27.936Z,97560.74
2018-07-06T13:35:56.582Z,97560.70
2018-07-06T13:38:25.160Z,97559.39
2018-07-06T13:40:54.025Z,97560.01
2018-07-06T13:43:22.712Z,97555.94
2018-07-06T13:45:51.400Z,97554.62
2018-07-06T13:48:20.130Z,97555.81
2018-07-06T13:50:48.875Z,97552.65
2018-07-06T13:53:17.868Z,97559.28
2018-07-06T13:55:46.851Z,97557.72
2018-07-06T13:58:16.655Z,97548.30
2018-07-06T14:00:45.386Z,97556.26
2018-07-06T14:03:14.211Z,97561.98
2018-07-06T14:05:42.973Z,97554.20
2018-07-06T14:08:11.613Z,97559.22
2018-07-06T14:10:40.245Z,97557.96
2018-07-06T14:13:08.803Z,97559.70
2018-07-06T14:15:37.534Z,97560.94
2018-07-06T14:18:06.169Z,97559.15
2018-07-06T14:20:34.863Z,97557.34
2018-07-06T14:23:03.541Z,97565.06
2018-07-06T14:25:32.272Z,97546.94
2018-07-06T14:28:00.953Z,97558.22
2018-07-06T14:30:29.598Z,97555.98
2018-07-06T14:32:58.337Z,97560.98
2018-07-06T14:35:27.057Z,97561.31
2018-07-06T14:37:55.833Z,97563.30
2018-07-06T14:40:24.502Z,97564.34
2018-07-06T14:42:53.170Z,97556.53
2018-07-06T14:45:21.858Z,97557.06
2018-07-06T14:47:50.541Z,97552.38
2018-07-06T14:50:19.338Z,97552.14
2018-07-06T14:52:48.096Z,97549.41
2018-07-06T14:55:17.106Z,97556.71
2018-07-06T14:57:45.852Z,97556.79
2018-07-06T15:00:14.535Z,97553.17
2018-07-06T15:02:43.442Z,97554.31
2018-07-06T15:05:12.162Z,97555.48
2018-07-06T15:07:41.198Z,97556.56
2018-07-06T15:10:10.527Z,97554.45
2018-07-06T15:12:39.262Z,97549.43
2018-07-06T15:15:08.227Z,97546.48
2018-07-06T15:17:37.496Z,97548.36
2018-07-06T15:20:06.307Z,97549.77
2018-07-06T15:22:35.037Z,97557.64
2018-07-06T15:25:04.253Z,97553.34
2018-07-06T15:27:33.163Z,97559.28
2018-07-06T15:30:01.973Z,97555.24
2018-07-06T15:32:30.854Z,97546.73
2018-07-06T15:34:59.750Z,97544.02
2018-07-06T15:37:28.415Z,97552.61
2018-07-06T15:39:57.172Z,97550.70
2018-07-06T15:42:25.793Z,97551.86
2018-07-06T15:44:54.483Z,97553.25
2018-07-06T15:47:23.176Z,97551.39
2018-07-06T15:49:52.017Z,97549.44
2018-07-06T15:52:20.883Z,97550.69
2018-07-06T15:54:49.771Z,97548.82
2018-07-06T15:57:18.700Z,97549.08
2018-07-06T15:59:47.601Z,97550.93
2018-07-06T16:02:16.426Z,97553.47
2018-07-06T16:04:45.171Z,97554.87
2018-07-06T16:07:13.949Z,97555.75
2018-07-06T16:09:42.652Z,97561.28
2018-07-06T16:12:11.484Z,97567.00
2018-07-06T16:14:40.207Z,97561.92
2018-07-06T16:17:08.850Z,97562.45
2018-07-06T16:19:37.463Z,97563.58
2018-07-06T16:22:06.989Z,97556.60
2018-07-06T16:24:35.801Z,97551.98
2018-07-06T16:27:04.581Z,97557.23
2018-07-06T16:29:33.353Z,97560.77
2018-07-06T16:32:01.997Z,97567.88
2018-07-06T16:34:30.688Z,97566.98
2018-07-06T16:36:59.375Z,97567.13
2018-07-06T16:39:28.100Z,97567.39
2018-07-06T16:41:56.880Z,97571.77
2018-07-06T16:44:25.719Z,97570.25
2018-07-06T16:46:54.414Z,97563.57
2018-07-06T16:49:23.009Z,97564.05
2018-07-06T16:51:51.606Z,97560.36
2018-07-06T16:54:20.206Z,97565.42
2018-07-06T16:56:48.927Z,97564.13
2018-07-06T16:59:17.532Z,97567.50
2018-07-06T17:01:46.175Z,97565.75
2018-07-06T17:04:14.754Z,97567.75
2018-07-06T17:06:43.607Z,97564.03
2018-07-06T17:09:12.233Z,97560.05
2018-07-06T17:11:40.899Z,97569.27
2018-07-06T17:14:09.639Z,97565.03
2018-07-06T17:16:38.479Z,97562.81
2018-07-06T17:19:07.257Z,97561.07
2018-07-06T17:21:35.926Z,97560.78
2018-07-06T17:24:04.918Z,97566.23
2018-07-06T17:26:33.622Z,97571.40
2018-07-06T17:29:02.460Z,97563.89
2018-07-06T17:31:31.189Z,97097.41
2018-07-06T17:33:59.993Z,97560.28
2018-07-06T17:36:28.729Z,97563.23
2018-07-06T17:38:57.397Z,97558.80
2018-07-06T17:41:26.155Z,97558.34
2018-07-06T17:43:55.069Z,97556.20
2018-07-06T17:46:23.712Z,97564.57
2018-07-06T17:48:52.802Z,97558.47
2018-07-06T17:51:21.645Z,97558.39
2018-07-06T17:53:50.398Z,97563.97
2018-07-06T17:56:19.304Z,97509.83
2018-07-06T17:58:48.045Z,97558.09
2018-07-06T18:01:17.158Z,97558.17
2018-07-06T18:03:46.093Z,97563.44
2018-07-06T18:06:14.874Z,97565.84
2018-07-06T18:08:43.636Z,97565.19
2018-07-06T18:11:12.512Z,97563.43
2018-07-06T18:13:41.274Z,97558.03
2018-07-06T18:16:10.149Z,97560.64
2018-07-06T18:18:39.002Z,97567.89
2018-07-06T18:21:07.900Z,97564.18
2018-07-06T18:23:36.749Z,97573.86
2018-07-06T18:26:09.440Z,97568.16
2018-07-06T18:28:38.165Z,97573.55
2018-07-06T18:31:06.881Z,97576.08
2018-07-06T18:33:35.653Z,97575.42
2018-07-06T18:36:04.398Z,97580.73
2018-07-06T18:38:33.122Z,97589.45
2018-07-06T18:41:01.922Z,97593.31
2018-07-06T18:43:30.631Z,97590.43
2018-07-06T18:45:59.441Z,97585.64
2018-07-06T18:48:28.205Z,97593.61
2018-07-06T18:50:56.800Z,97600.21
2018-07-06T18:53:25.413Z,97615.90
2018-07-06T18:55:54.178Z,97615.69
2018-07-06T18:58:22.831Z,97620.48
2018-07-06T19:00:51.451Z,97626.19
2018-07-06T19:03:20.282Z,97628.08
2018-07-06T19:05:48.933Z,97627.47
2018-07-06T19:08:17.818Z,97632.27
2018-07-06T19:10:46.665Z,97634.96
2018-07-06T19:13:15.373Z,97639.50
2018-07-06T19:15:44.277Z,97646.64
2018-07-06T19:18:13.162Z,97655.49
2018-07-06T19:20:42.165Z,97655.29
2018-07-06T19:23:10.946Z,97655.02
2018-07-06T19:25:46.621Z,97655.45
2018-07-06T19:28:15.241Z,97654.06
2018-07-06T19:30:43.875Z,97642.14
2018-07-06T19:33:12.623Z,97650.02
2018-07-06T19:35:41.398Z,97641.13
2018-07-06T19:38:10.038Z,97664.99
2018-07-06T19:40:38.913Z,97663.66
2018-07-06T19:43:08.580Z,97659.00
2018-07-06T19:51:27.749Z,97661.14
2018-07-06T19:53:57.404Z,97654.41
2018-07-06T19:56:27.383Z,97650.92
2018-07-06T19:58:57.559Z,97640.74
2018-07-06T20:01:26.578Z,97623.67
2018-07-06T20:03:55.483Z,97449.39
2018-07-06T20:06:24.772Z,97413.95
2018-07-06T20:08:53.592Z,97421.03
2018-07-06T20:11:22.504Z,97395.42
2018-07-06T20:13:51.446Z,97365.89
2018-07-06T20:16:20.146Z,97329.40
2018-07-06T20:18:48.953Z,97273.50
2018-07-06T20:21:17.946Z,97300.64
2018-07-06T20:23:46.940Z,97278.29
2018-07-06T20:26:15.741Z,97266.77
2018-07-06T20:28:44.426Z,97291.70
2018-07-06T20:31:13.135Z,97265.59
2018-07-06T20:33:41.911Z,97232.50
2018-07-06T20:36:10.553Z,97219.08
2018-07-06T20:38:39.240Z,97248.42
2018-07-06T20:41:09.350Z,97232.30
2018-07-06T20:43:38.041Z,97245.88
2018-07-06T20:46:07.318Z,97283.28
2018-07-06T20:48:36.188Z,97270.95
2018-07-06T20:51:04.957Z,97255.95
2018-07-06T20:53:36.273Z,97270.68
2018-07-06T20:56:04.916Z,97314.91
2018-07-06T20:58:35.904Z,97353.50
2018-07-06T21:01:04.518Z,97362.87
2018-07-06T21:03:33.251Z,97386.95
2018-07-06T21:06:02.835Z,97423.70
2018-07-06T21:08:31.802Z,97419.31
2018-07-06T21:11:00.474Z,97432.33
2018-07-06T21:13:29.137Z,97381.83
2018-07-06T21:15:58.807Z,97315.89
2018-07-06T21:18:30.473Z,97291.77
2018-07-06T21:20:59.336Z,97301.28
2018-07-06T21:23:28.017Z,97361.16
2018-07-06T21:25:56.700Z,97378.81
2018-07-06T21:28:25.535Z,97380.09
2018-07-06T21:30:54.228Z,97387.14
2018-07-06T21:33:22.889Z,97361.80
2018-07-06T21:35:51.664Z,97386.23
2018-07-06T21:38:20.673Z,97383.50
2018-07-06T21:40:49.428Z,97375.81
2018-07-06T21:43:19.639Z,97375.38
2018-07-06T21:45:51.259Z,97387.37
2018-07-06T21:48:19.947Z,97365.36
2018-07-06T21:50:48.865Z,97352.20
2018-07-06T21:53:17.630Z,97329.73
2018-07-06T21:55:46.338Z,97333.73
2018-07-06T21:58:15.066Z,97336.27
2018-07-06T22:00:45.095Z,97338.94
2018-07-06T22:03:13.874Z,97344.02
2018-07-06T22:05:43.063Z,97341.35
2018-07-06T22:08:14.175Z,97336.57
2018-07-06T22:10:42.917Z,97325.96
2018-07-06T22:13:11.690Z,97317.27
2018-07-06T22:15:46.496Z,97320.95
2018-07-06T22:18:17.096Z,97325.91
2018-07-06T22:20:46.696Z,97321.48
2018-07-06T22:23:16.029Z,97315.91
2018-07-06T22:25:44.779Z,97309.04
2018-07-06T22:28:13.453Z,97309.43
2018-07-06T22:30:42.221Z,97311.91
2018-07-06T22:33:12.148Z,97312.33
2018-07-06T22:35:40.824Z,97312.72
2018-07-06T22:38:16.276Z,97326.00
2018-07-06T22:40:45.125Z,97334.83
2018-07-06T22:43:13.917Z,97333.92
2018-07-06T22:45:42.661Z,97338.58
2018-07-06T22:48:11.441Z,97336.39
2018-07-06T22:50:40.116Z,97344.27
2018-07-06T22:53:08.719Z,97338.54
2018-07-06T22:55:37.492Z,97351.17
2018-07-06T22:58:06.403Z,97352.70
2018-07-06T23:00:35.135Z,97354.58
2018-07-06T23:03:05.393Z,97356.63
2018-07-06T23:05:34.093Z,97352.30
2018-07-06T23:08:03.007Z,97340.74
2018-07-06T23:10:31.653Z,97340.54
2018-07-06T23:13:00.349Z,97342.13
2018-07-06T23:15:29.305Z,97335.45
2018-07-06T23:17:57.979Z,97323.30
2018-07-06T23:20:26.791Z,97321.02
2018-07-06T23:23:03.612Z,97311.09
2018-07-06T23:25:33.981Z,97312.61
2018-07-06T23:28:02.891Z,97311.20
2018-07-06T23:30:31.713Z,97305.92
2018-07-06T23:33:01.313Z,97305.23
2018-07-06T23:35:30.142Z,97303.05
2018-07-06T23:37:58.962Z,97308.05
2018-07-06T23:40:27.636Z,97306.30
2018-07-06T23:42:56.353Z,97306.16
2018-07-06T23:45:25.338Z,97303.41
2018-07-06T23:47:54.351Z,97307.56
2018-07-06T23:50:23.693Z,97313.31
2018-07-06T23:52:52.493Z,97316.52
2018-07-06T23:55:21.357Z,97315.85
2018-07-06T23:57:50.562Z,97316.09
